首页
METAR-TAF:

METAR-TAF

机场 :

達爾文國際機場

达尔文, 澳大利亚

纬度: 12-24S, 经度: 130-52E, 海拔: 31米

当前天气观测

该预报发布于21分钟前的05:00 UTC
风速12节,风向西转西北
温度 30°C
湿度 79%
气压 1010 hPa
能见度10公里或以上
少量云层高于4200英尺
多云层高于7100英尺
少量云层高于4200英尺, 塔状积云.
散云层高于4000英尺
阵雨

METAR: YPDN 190500Z 30013KT 6000 SHRA FEW042 BKN071 FEW042TCU 30/26 Q1010 FM0520 30012KT 9999 SCT040

时间: 14:51 (05:21 UTC)

预报

该预报发布于6小时和4分钟前的23:17 UTC
预报有效从19日的 00点(UTC)到 20日的 06点(UTC)
风速5节,风向西
能见度10公里或以上
少量云层高于3000英尺
从 19日的 0300点(UTC)
风速12节,风向西转西北
能见度10公里或以上
散云层高于4000英尺
从 19日的 1200点(UTC)
风速6节,风向西
能见度10公里或以上
少量云层高于2000英尺
从 20日的 0300点(UTC)
风速12节,风向西转西北
能见度10公里或以上
散云层高于4000英尺
几率 30% :
短暂存在
从 19日的 06点(UTC)到 19日的 12点(UTC)
风速20节,风向多变,有时为35节阵风
能見度: 1000
多云层高于1000英尺
散云层高于2000英尺, 积雨云.
雷暴, 雨
几率 30% :
短暂存在
从 19日的 16点(UTC)到 19日的 22点(UTC)
风速20节,风向多变,有时为35节阵风
能見度: 1000
多云层高于1000英尺
散云层高于2000英尺, 积雨云.
雷暴, 雨

TAF: YPDN 182317Z 1900/2006 27005KT 9999 FEW030 FM190300 30012KT 9999 SCT040 FM191200 28006KT 9999 FEW020 FM200300 30012KT 9999 SCT040 PROB30 TEMPO 1906/1912 VRB20G35KT 1000 TSRA BKN010 SCT020CB PROB30 TEMPO 1916/1922 VRB20G35KT 1000 TSRA BKN010 SCT020CB

超过4000个机场的气象观测和天气预报(METAR&TAF报告)。

可查询的气象台以黄色和红色小点在地图上表示。

将鼠标移到小点上方,可查看气象台名称。

然后点击查看天气观测和预报。

如需切换地图:点击带黑十字的绿色按钮放大地图;点击带横线的绿色按钮缩小地图;或者点击绿色箭头查看邻近地区的地图。


METAR-TAF: